sensor_id;sensor_type;location;lat;lon;timestamp;P1;durP1;ratioP1;P2;durP2;ratioP2
80711;SDS011;70078;51.596;5.678;2024-02-21T00:00:20;14.60;;;5.57;;
80711;SDS011;70078;51.596;5.678;2024-02-21T00:05:11;13.83;;;4.87;;
80711;SDS011;70078;51.596;5.678;2024-02-21T00:07:36;10.45;;;4.97;;
80711;SDS011;70078;51.596;5.678;2024-02-21T00:10:02;14.15;;;5.78;;
80711;SDS011;70078;51.596;5.678;2024-02-21T00:12:28;15.85;;;5.03;;
80711;SDS011;70078;51.596;5.678;2024-02-21T00:14:53;13.32;;;5.45;;
80711;SDS011;70078;51.596;5.678;2024-02-21T00:19:44;11.70;;;5.17;;
80711;SDS011;70078;51.596;5.678;2024-02-21T00:24:34;17.67;;;5.47;;
80711;SDS011;70078;51.596;5.678;2024-02-21T00:26:59;14.07;;;4.85;;
80711;SDS011;70078;51.596;5.678;2024-02-21T00:31:50;11.15;;;4.80;;
80711;SDS011;70078;51.596;5.678;2024-02-21T00:34:16;12.13;;;5.35;;
80711;SDS011;70078;51.596;5.678;2024-02-21T00:36:41;14.85;;;5.47;;
80711;SDS011;70078;51.596;5.678;2024-02-21T00:41:32;16.05;;;6.50;;
80711;SDS011;70078;51.596;5.678;2024-02-21T00:46:23;15.60;;;4.63;;
80711;SDS011;70078;51.596;5.678;2024-02-21T00:51:14;12.75;;;5.82;;
80711;SDS011;70078;51.596;5.678;2024-02-21T00:53:40;11.27;;;4.95;;
80711;SDS011;70078;51.596;5.678;2024-02-21T00:56:07;15.18;;;5.40;;
80711;SDS011;70078;51.596;5.678;2024-02-21T00:58:32;11.85;;;4.47;;
80711;SDS011;70078;51.596;5.678;2024-02-21T01:00:57;17.42;;;5.50;;
80711;SDS011;70078;51.596;5.678;2024-02-21T01:05:48;9.50;;;4.13;;
80711;SDS011;70078;51.596;5.678;2024-02-21T01:10:38;12.32;;;4.82;;
80711;SDS011;70078;51.596;5.678;2024-02-21T01:13:04;12.65;;;4.80;;
80711;SDS011;70078;51.596;5.678;2024-02-21T01:15:29;10.10;;;4.20;;
80711;SDS011;70078;51.596;5.678;2024-02-21T01:17:54;12.98;;;4.93;;
80711;SDS011;70078;51.596;5.678;2024-02-21T01:20:20;13.52;;;5.78;;
80711;SDS011;70078;51.596;5.678;2024-02-21T01:22:46;11.45;;;4.00;;
80711;SDS011;70078;51.596;5.678;2024-02-21T01:25:11;13.35;;;4.40;;
80711;SDS011;70078;51.596;5.678;2024-02-21T01:27:36;7.60;;;3.95;;
80711;SDS011;70078;51.596;5.678;2024-02-21T01:30:02;13.52;;;5.25;;
80711;SDS011;70078;51.596;5.678;2024-02-21T01:32:27;15.80;;;4.95;;
80711;SDS011;70078;51.596;5.678;2024-02-21T01:34:52;9.63;;;3.70;;
80711;SDS011;70078;51.596;5.678;2024-02-21T01:37:18;10.55;;;4.85;;
80711;SDS011;70078;51.596;5.678;2024-02-21T01:39:43;10.10;;;4.32;;
80711;SDS011;70078;51.596;5.678;2024-02-21T01:42:08;7.22;;;3.97;;
80711;SDS011;70078;51.596;5.678;2024-02-21T01:44:34;10.10;;;4.40;;
80711;SDS011;70078;51.596;5.678;2024-02-21T01:46:59;9.57;;;4.13;;
80711;SDS011;70078;51.596;5.678;2024-02-21T01:49:25;12.73;;;4.18;;
80711;SDS011;70078;51.596;5.678;2024-02-21T01:51:50;12.48;;;4.47;;
80711;SDS011;70078;51.596;5.678;2024-02-21T01:54:16;12.05;;;3.92;;
80711;SDS011;70078;51.596;5.678;2024-02-21T01:56:43;11.00;;;3.60;;
80711;SDS011;70078;51.596;5.678;2024-02-21T01:59:11;11.23;;;4.65;;
80711;SDS011;70078;51.596;5.678;2024-02-21T02:01:38;6.70;;;3.92;;
80711;SDS011;70078;51.596;5.678;2024-02-21T02:06:30;9.27;;;4.05;;
80711;SDS011;70078;51.596;5.678;2024-02-21T02:08:56;11.50;;;4.15;;
80711;SDS011;70078;51.596;5.678;2024-02-21T02:11:21;11.88;;;4.53;;
80711;SDS011;70078;51.596;5.678;2024-02-21T02:13:47;8.98;;;3.97;;
80711;SDS011;70078;51.596;5.678;2024-02-21T02:16:12;9.45;;;3.97;;
80711;SDS011;70078;51.596;5.678;2024-02-21T02:21:08;14.03;;;4.43;;
80711;SDS011;70078;51.596;5.678;2024-02-21T02:23:38;9.88;;;3.80;;
80711;SDS011;70078;51.596;5.678;2024-02-21T02:26:05;12.23;;;4.18;;
80711;SDS011;70078;51.596;5.678;2024-02-21T02:28:32;9.13;;;3.55;;
80711;SDS011;70078;51.596;5.678;2024-02-21T02:30:57;14.20;;;3.78;;
80711;SDS011;70078;51.596;5.678;2024-02-21T02:35:48;8.90;;;3.15;;
80711;SDS011;70078;51.596;5.678;2024-02-21T02:38:13;6.28;;;2.72;;
80711;SDS011;70078;51.596;5.678;2024-02-21T02:40:39;9.27;;;3.70;;
80711;SDS011;70078;51.596;5.678;2024-02-21T02:43:05;8.93;;;3.50;;
80711;SDS011;70078;51.596;5.678;2024-02-21T02:45:31;7.90;;;3.20;;
80711;SDS011;70078;51.596;5.678;2024-02-21T02:50:26;11.80;;;3.92;;
80711;SDS011;70078;51.596;5.678;2024-02-21T02:52:52;6.55;;;3.17;;
80711;SDS011;70078;51.596;5.678;2024-02-21T02:57:43;9.18;;;3.13;;
80711;SDS011;70078;51.596;5.678;2024-02-21T03:00:12;8.27;;;2.78;;
80711;SDS011;70078;51.596;5.678;2024-02-21T03:02:39;7.82;;;2.83;;
80711;SDS011;70078;51.596;5.678;2024-02-21T03:05:11;8.80;;;3.75;;
80711;SDS011;70078;51.596;5.678;2024-02-21T03:07:41;8.75;;;2.95;;
80711;SDS011;70078;51.596;5.678;2024-02-21T03:10:07;10.85;;;3.55;;
80711;SDS011;70078;51.596;5.678;2024-02-21T03:12:33;8.63;;;3.25;;
80711;SDS011;70078;51.596;5.678;2024-02-21T03:17:24;4.65;;;2.42;;
80711;SDS011;70078;51.596;5.678;2024-02-21T03:19:51;9.85;;;3.95;;
80711;SDS011;70078;51.596;5.678;2024-02-21T03:22:17;9.32;;;3.80;;
80711;SDS011;70078;51.596;5.678;2024-02-21T03:27:08;7.82;;;3.35;;
80711;SDS011;70078;51.596;5.678;2024-02-21T03:29:33;11.57;;;3.10;;
80711;SDS011;70078;51.596;5.678;2024-02-21T03:31:59;8.88;;;2.88;;
80711;SDS011;70078;51.596;5.678;2024-02-21T03:34:24;7.70;;;2.95;;
80711;SDS011;70078;51.596;5.678;2024-02-21T03:36:49;9.35;;;3.38;;
80711;SDS011;70078;51.596;5.678;2024-02-21T03:39:14;6.90;;;2.42;;
80711;SDS011;70078;51.596;5.678;2024-02-21T03:44:05;8.20;;;2.63;;
80711;SDS011;70078;51.596;5.678;2024-02-21T03:48:56;6.55;;;2.92;;
80711;SDS011;70078;51.596;5.678;2024-02-21T03:51:22;9.15;;;3.17;;
80711;SDS011;70078;51.596;5.678;2024-02-21T03:56:12;8.30;;;2.67;;
80711;SDS011;70078;51.596;5.678;2024-02-21T03:58:37;7.88;;;2.70;;
80711;SDS011;70078;51.596;5.678;2024-02-21T04:01:03;7.30;;;2.80;;
80711;SDS011;70078;51.596;5.678;2024-02-21T04:05:54;7.32;;;2.88;;
80711;SDS011;70078;51.596;5.678;2024-02-21T04:08:19;7.70;;;2.72;;
80711;SDS011;70078;51.596;5.678;2024-02-21T04:13:10;8.43;;;3.05;;
80711;SDS011;70078;51.596;5.678;2024-02-21T04:18:01;9.82;;;2.58;;
80711;SDS011;70078;51.596;5.678;2024-02-21T04:20:28;10.40;;;3.25;;
80711;SDS011;70078;51.596;5.678;2024-02-21T04:22:53;6.25;;;2.78;;
80711;SDS011;70078;51.596;5.678;2024-02-21T04:25:19;9.15;;;3.50;;
80711;SDS011;70078;51.596;5.678;2024-02-21T04:30:10;8.40;;;2.85;;
80711;SDS011;70078;51.596;5.678;2024-02-21T04:35:00;8.00;;;3.30;;
80711;SDS011;70078;51.596;5.678;2024-02-21T04:37:26;6.60;;;2.65;;
80711;SDS011;70078;51.596;5.678;2024-02-21T04:39:51;6.72;;;3.15;;
80711;SDS011;70078;51.596;5.678;2024-02-21T04:44:42;7.90;;;3.38;;
80711;SDS011;70078;51.596;5.678;2024-02-21T04:47:07;11.05;;;3.42;;
80711;SDS011;70078;51.596;5.678;2024-02-21T04:49:33;10.43;;;4.30;;
80711;SDS011;70078;51.596;5.678;2024-02-21T04:54:24;10.25;;;3.65;;
80711;SDS011;70078;51.596;5.678;2024-02-21T04:59:15;9.95;;;3.58;;
80711;SDS011;70078;51.596;5.678;2024-02-21T05:01:40;10.35;;;4.10;;
80711;SDS011;70078;51.596;5.678;2024-02-21T05:06:31;12.88;;;4.10;;
80711;SDS011;70078;51.596;5.678;2024-02-21T05:08:56;9.80;;;4.40;;
80711;SDS011;70078;51.596;5.678;2024-02-21T05:13:48;12.98;;;4.80;;
80711;SDS011;70078;51.596;5.678;2024-02-21T05:16:13;10.45;;;4.82;;
80711;SDS011;70078;51.596;5.678;2024-02-21T05:21:05;10.57;;;4.32;;
80711;SDS011;70078;51.596;5.678;2024-02-21T05:23:30;12.90;;;4.88;;
80711;SDS011;70078;51.596;5.678;2024-02-21T05:28:20;12.30;;;5.03;;
80711;SDS011;70078;51.596;5.678;2024-02-21T05:30:46;11.23;;;4.32;;
80711;SDS011;70078;51.596;5.678;2024-02-21T05:35:37;11.73;;;4.32;;
80711;SDS011;70078;51.596;5.678;2024-02-21T05:38:03;9.35;;;4.40;;
80711;SDS011;70078;51.596;5.678;2024-02-21T05:40:36;11.60;;;4.68;;
80711;SDS011;70078;51.596;5.678;2024-02-21T05:43:01;12.55;;;5.30;;
80711;SDS011;70078;51.596;5.678;2024-02-21T05:47:52;9.33;;;3.93;;
80711;SDS011;70078;51.596;5.678;2024-02-21T05:52:42;11.10;;;4.73;;
80711;SDS011;70078;51.596;5.678;2024-02-21T05:55:08;11.60;;;4.85;;
80711;SDS011;70078;51.596;5.678;2024-02-21T05:57:36;16.50;;;4.75;;
80711;SDS011;70078;51.596;5.678;2024-02-21T06:00:03;9.85;;;4.47;;
80711;SDS011;70078;51.596;5.678;2024-02-21T06:02:30;12.15;;;4.72;;
80711;SDS011;70078;51.596;5.678;2024-02-21T06:04:55;9.80;;;4.28;;
80711;SDS011;70078;51.596;5.678;2024-02-21T06:09:46;11.57;;;4.60;;
80711;SDS011;70078;51.596;5.678;2024-02-21T06:14:36;9.57;;;4.22;;
80711;SDS011;70078;51.596;5.678;2024-02-21T06:17:02;10.68;;;4.50;;
80711;SDS011;70078;51.596;5.678;2024-02-21T06:21:53;11.47;;;5.17;;
80711;SDS011;70078;51.596;5.678;2024-02-21T06:24:18;10.57;;;4.53;;
80711;SDS011;70078;51.596;5.678;2024-02-21T06:29:09;12.63;;;4.95;;
80711;SDS011;70078;51.596;5.678;2024-02-21T06:31:35;11.13;;;4.60;;
80711;SDS011;70078;51.596;5.678;2024-02-21T06:36:25;11.07;;;4.25;;
80711;SDS011;70078;51.596;5.678;2024-02-21T06:38:51;15.32;;;6.15;;
80711;SDS011;70078;51.596;5.678;2024-02-21T06:41:16;10.75;;;5.03;;
80711;SDS011;70078;51.596;5.678;2024-02-21T06:43:45;12.52;;;5.53;;
80711;SDS011;70078;51.596;5.678;2024-02-21T06:46:11;11.52;;;4.70;;
80711;SDS011;70078;51.596;5.678;2024-02-21T06:48:36;13.65;;;5.13;;
80711;SDS011;70078;51.596;5.678;2024-02-21T06:51:02;11.18;;;5.50;;
80711;SDS011;70078;51.596;5.678;2024-02-21T06:53:28;11.30;;;5.15;;
80711;SDS011;70078;51.596;5.678;2024-02-21T06:55:53;11.40;;;5.10;;
80711;SDS011;70078;51.596;5.678;2024-02-21T06:58:19;12.95;;;5.50;;
80711;SDS011;70078;51.596;5.678;2024-02-21T07:00:44;11.40;;;4.40;;
80711;SDS011;70078;51.596;5.678;2024-02-21T07:03:09;12.85;;;4.93;;
80711;SDS011;70078;51.596;5.678;2024-02-21T07:05:35;11.55;;;5.03;;
80711;SDS011;70078;51.596;5.678;2024-02-21T07:08:00;11.32;;;5.38;;
80711;SDS011;70078;51.596;5.678;2024-02-21T07:10:25;12.48;;;4.75;;
80711;SDS011;70078;51.596;5.678;2024-02-21T07:12:52;9.77;;;4.70;;
80711;SDS011;70078;51.596;5.678;2024-02-21T07:15:18;12.05;;;5.40;;
80711;SDS011;70078;51.596;5.678;2024-02-21T07:17:43;15.10;;;5.63;;
80711;SDS011;70078;51.596;5.678;2024-02-21T07:22:34;12.43;;;5.43;;
80711;SDS011;70078;51.596;5.678;2024-02-21T07:24:59;13.63;;;6.18;;
80711;SDS011;70078;51.596;5.678;2024-02-21T07:27:24;14.43;;;6.38;;
80711;SDS011;70078;51.596;5.678;2024-02-21T07:29:53;12.32;;;5.88;;
80711;SDS011;70078;51.596;5.678;2024-02-21T07:32:18;9.90;;;4.40;;
80711;SDS011;70078;51.596;5.678;2024-02-21T07:34:44;9.40;;;4.85;;
80711;SDS011;70078;51.596;5.678;2024-02-21T07:37:09;11.18;;;5.30;;
80711;SDS011;70078;51.596;5.678;2024-02-21T07:39:38;10.80;;;4.90;;
80711;SDS011;70078;51.596;5.678;2024-02-21T07:42:03;10.40;;;4.72;;
80711;SDS011;70078;51.596;5.678;2024-02-21T07:44:29;12.93;;;5.47;;
80711;SDS011;70078;51.596;5.678;2024-02-21T07:46:56;12.88;;;6.00;;
80711;SDS011;70078;51.596;5.678;2024-02-21T07:49:22;13.32;;;5.53;;
80711;SDS011;70078;51.596;5.678;2024-02-21T07:51:47;14.85;;;7.10;;
80711;SDS011;70078;51.596;5.678;2024-02-21T07:54:12;13.57;;;6.65;;
80711;SDS011;70078;51.596;5.678;2024-02-21T07:59:03;11.00;;;5.10;;
80711;SDS011;70078;51.596;5.678;2024-02-21T08:01:28;13.98;;;5.38;;
80711;SDS011;70078;51.596;5.678;2024-02-21T08:03:53;12.40;;;5.30;;
80711;SDS011;70078;51.596;5.678;2024-02-21T08:08:44;12.10;;;4.47;;
80711;SDS011;70078;51.596;5.678;2024-02-21T09:55:32;5.88;;;3.13;;
80711;SDS011;70078;51.596;5.678;2024-02-21T09:58:10;9.63;;;3.90;;
80711;SDS011;70078;51.596;5.678;2024-02-21T10:00:37;5.88;;;3.53;;
80711;SDS011;70078;51.596;5.678;2024-02-21T10:03:03;10.02;;;4.68;;
80711;SDS011;70078;51.596;5.678;2024-02-21T10:05:34;9.38;;;4.30;;
80711;SDS011;70078;51.596;5.678;2024-02-21T10:08:00;9.05;;;3.90;;
80711;SDS011;70078;51.596;5.678;2024-02-21T11:25:05;6.45;;;2.67;;
80711;SDS011;70078;51.596;5.678;2024-02-21T11:27:33;6.60;;;3.25;;
80711;SDS011;70078;51.596;5.678;2024-02-21T11:29:59;7.38;;;3.25;;
80711;SDS011;70078;51.596;5.678;2024-02-21T11:35:00;7.60;;;3.05;;
80711;SDS011;70078;51.596;5.678;2024-02-21T11:37:29;11.07;;;3.88;;
80711;SDS011;70078;51.596;5.678;2024-02-21T11:39:55;8.25;;;3.22;;
80711;SDS011;70078;51.596;5.678;2024-02-21T11:42:21;7.05;;;3.15;;
80711;SDS011;70078;51.596;5.678;2024-02-21T11:45:06;8.40;;;2.90;;
80711;SDS011;70078;51.596;5.678;2024-02-21T11:47:33;8.02;;;3.25;;
80711;SDS011;70078;51.596;5.678;2024-02-21T11:49:59;7.63;;;3.25;;
80711;SDS011;70078;51.596;5.678;2024-02-21T11:54:53;6.50;;;3.03;;
80711;SDS011;70078;51.596;5.678;2024-02-21T11:57:19;6.65;;;3.30;;
80711;SDS011;70078;51.596;5.678;2024-02-21T12:02:11;9.15;;;3.58;;
80711;SDS011;70078;51.596;5.678;2024-02-21T12:07:02;5.95;;;2.33;;
80711;SDS011;70078;51.596;5.678;2024-02-21T12:09:30;8.52;;;3.35;;
80711;SDS011;70078;51.596;5.678;2024-02-21T12:14:28;6.68;;;3.17;;
80711;SDS011;70078;51.596;5.678;2024-02-21T12:16:58;5.82;;;3.40;;
80711;SDS011;70078;51.596;5.678;2024-02-21T12:19:30;6.15;;;2.85;;
80711;SDS011;70078;51.596;5.678;2024-02-21T12:21:59;9.85;;;3.05;;
80711;SDS011;70078;51.596;5.678;2024-02-21T12:24:26;17.67;;;9.57;;
80711;SDS011;70078;51.596;5.678;2024-02-21T12:26:55;5.72;;;2.95;;
80711;SDS011;70078;51.596;5.678;2024-02-21T12:31:54;6.70;;;2.80;;
80711;SDS011;70078;51.596;5.678;2024-02-21T12:36:49;4.82;;;2.53;;
80711;SDS011;70078;51.596;5.678;2024-02-21T12:39:14;6.43;;;2.63;;
80711;SDS011;70078;51.596;5.678;2024-02-21T12:44:07;8.40;;;3.30;;
80711;SDS011;70078;51.596;5.678;2024-02-21T12:51:34;7.32;;;3.40;;
80711;SDS011;70078;51.596;5.678;2024-02-21T12:54:00;6.38;;;2.95;;
80711;SDS011;70078;51.596;5.678;2024-02-21T12:56:27;6.63;;;2.72;;
80711;SDS011;70078;51.596;5.678;2024-02-21T12:58:56;8.38;;;2.78;;
80711;SDS011;70078;51.596;5.678;2024-02-21T13:01:24;6.95;;;2.85;;
80711;SDS011;70078;51.596;5.678;2024-02-21T13:06:15;6.18;;;2.42;;
80711;SDS011;70078;51.596;5.678;2024-02-21T13:11:06;6.93;;;2.58;;
80711;SDS011;70078;51.596;5.678;2024-02-21T13:15:57;8.80;;;2.60;;
80711;SDS011;70078;51.596;5.678;2024-02-21T13:18:23;8.00;;;2.53;;
80711;SDS011;70078;51.596;5.678;2024-02-21T13:23:14;5.72;;;2.58;;
80711;SDS011;70078;51.596;5.678;2024-02-21T13:28:04;6.67;;;2.70;;
80711;SDS011;70078;51.596;5.678;2024-02-21T13:32:57;6.18;;;2.80;;
80711;SDS011;70078;51.596;5.678;2024-02-21T13:37:48;8.45;;;2.60;;
80711;SDS011;70078;51.596;5.678;2024-02-21T13:42:39;5.88;;;2.42;;
80711;SDS011;70078;51.596;5.678;2024-02-21T13:47:30;6.55;;;3.60;;
80711;SDS011;70078;51.596;5.678;2024-02-21T13:52:21;6.47;;;2.50;;
80711;SDS011;70078;51.596;5.678;2024-02-21T13:57:12;6.32;;;2.63;;
80711;SDS011;70078;51.596;5.678;2024-02-21T13:59:39;6.53;;;2.35;;
80711;SDS011;70078;51.596;5.678;2024-02-21T14:04:30;5.13;;;2.35;;
80711;SDS011;70078;51.596;5.678;2024-02-21T14:09:21;5.05;;;1.73;;
80711;SDS011;70078;51.596;5.678;2024-02-21T14:14:11;8.75;;;2.70;;
80711;SDS011;70078;51.596;5.678;2024-02-21T14:16:38;5.75;;;2.45;;
80711;SDS011;70078;51.596;5.678;2024-02-21T14:21:28;7.07;;;2.10;;
80711;SDS011;70078;51.596;5.678;2024-02-21T14:23:54;4.68;;;2.00;;
80711;SDS011;70078;51.596;5.678;2024-02-21T14:28:44;5.90;;;2.07;;
80711;SDS011;70078;51.596;5.678;2024-02-21T14:31:10;6.07;;;1.92;;
80711;SDS011;70078;51.596;5.678;2024-02-21T14:36:01;7.07;;;2.07;;
80711;SDS011;70078;51.596;5.678;2024-02-21T14:40:52;5.57;;;2.80;;
80711;SDS011;70078;51.596;5.678;2024-02-21T14:43:18;4.93;;;2.15;;
80711;SDS011;70078;51.596;5.678;2024-02-21T14:45:46;5.07;;;2.10;;
80711;SDS011;70078;51.596;5.678;2024-02-21T14:48:12;6.45;;;2.65;;
80711;SDS011;70078;51.596;5.678;2024-02-21T14:53:03;5.73;;;1.83;;
80711;SDS011;70078;51.596;5.678;2024-02-21T14:57:54;5.55;;;1.83;;
80711;SDS011;70078;51.596;5.678;2024-02-21T15:02:46;8.70;;;2.85;;
80711;SDS011;70078;51.596;5.678;2024-02-21T15:05:11;4.97;;;2.03;;
80711;SDS011;70078;51.596;5.678;2024-02-21T15:07:39;5.40;;;2.03;;
80711;SDS011;70078;51.596;5.678;2024-02-21T15:12:29;5.97;;;2.70;;
80711;SDS011;70078;51.596;5.678;2024-02-21T15:14:56;4.70;;;2.20;;
80711;SDS011;70078;51.596;5.678;2024-02-21T15:19:47;4.10;;;2.05;;
80711;SDS011;70078;51.596;5.678;2024-02-21T15:24:38;4.95;;;2.30;;
80711;SDS011;70078;51.596;5.678;2024-02-21T15:27:07;5.45;;;1.90;;
80711;SDS011;70078;51.596;5.678;2024-02-21T15:29:36;6.03;;;2.50;;
80711;SDS011;70078;51.596;5.678;2024-02-21T15:34:28;4.65;;;2.28;;
80711;SDS011;70078;51.596;5.678;2024-02-21T15:36:53;6.38;;;2.47;;
80711;SDS011;70078;51.596;5.678;2024-02-21T15:41:44;3.57;;;1.97;;
80711;SDS011;70078;51.596;5.678;2024-02-21T15:44:09;5.80;;;2.03;;
80711;SDS011;70078;51.596;5.678;2024-02-21T15:46:35;5.90;;;2.80;;
80711;SDS011;70078;51.596;5.678;2024-02-21T15:49:02;5.15;;;1.98;;
80711;SDS011;70078;51.596;5.678;2024-02-21T15:53:55;5.68;;;2.45;;
80711;SDS011;70078;51.596;5.678;2024-02-21T15:56:20;4.72;;;1.77;;
80711;SDS011;70078;51.596;5.678;2024-02-21T16:01:11;6.72;;;2.85;;
80711;SDS011;70078;51.596;5.678;2024-02-21T16:03:37;7.38;;;2.70;;
80711;SDS011;70078;51.596;5.678;2024-02-21T16:06:02;5.97;;;2.60;;
80711;SDS011;70078;51.596;5.678;2024-02-21T16:08:28;5.38;;;2.30;;
80711;SDS011;70078;51.596;5.678;2024-02-21T16:10:53;4.82;;;2.17;;
80711;SDS011;70078;51.596;5.678;2024-02-21T16:13:19;5.70;;;2.80;;
80711;SDS011;70078;51.596;5.678;2024-02-21T16:18:11;5.60;;;1.98;;
80711;SDS011;70078;51.596;5.678;2024-02-21T16:20:37;7.00;;;3.05;;
80711;SDS011;70078;51.596;5.678;2024-02-21T16:23:02;5.70;;;2.75;;
80711;SDS011;70078;51.596;5.678;2024-02-21T16:25:28;5.93;;;2.05;;
80711;SDS011;70078;51.596;5.678;2024-02-21T16:27:54;6.90;;;2.50;;
80711;SDS011;70078;51.596;5.678;2024-02-21T16:30:19;5.60;;;2.50;;
80711;SDS011;70078;51.596;5.678;2024-02-21T16:32:44;6.97;;;2.75;;
80711;SDS011;70078;51.596;5.678;2024-02-21T16:35:10;11.52;;;3.65;;
80711;SDS011;70078;51.596;5.678;2024-02-21T16:40:01;9.82;;;2.85;;
80711;SDS011;70078;51.596;5.678;2024-02-21T16:42:29;9.57;;;3.45;;
80711;SDS011;70078;51.596;5.678;2024-02-21T16:44:55;6.45;;;3.03;;
80711;SDS011;70078;51.596;5.678;2024-02-21T16:47:20;6.38;;;2.60;;
80711;SDS011;70078;51.596;5.678;2024-02-21T16:49:45;9.35;;;3.47;;
80711;SDS011;70078;51.596;5.678;2024-02-21T16:52:11;7.38;;;3.08;;
80711;SDS011;70078;51.596;5.678;2024-02-21T16:54:36;7.90;;;4.43;;
80711;SDS011;70078;51.596;5.678;2024-02-21T16:57:01;6.22;;;3.38;;
80711;SDS011;70078;51.596;5.678;2024-02-21T16:59:27;8.95;;;3.55;;
80711;SDS011;70078;51.596;5.678;2024-02-21T17:01:53;6.35;;;3.70;;
80711;SDS011;70078;51.596;5.678;2024-02-21T17:04:18;7.30;;;4.07;;
80711;SDS011;70078;51.596;5.678;2024-02-21T17:06:44;8.68;;;4.05;;
80711;SDS011;70078;51.596;5.678;2024-02-21T17:09:09;7.43;;;3.10;;
80711;SDS011;70078;51.596;5.678;2024-02-21T17:11:38;7.97;;;3.38;;
80711;SDS011;70078;51.596;5.678;2024-02-21T17:14:03;7.50;;;4.10;;
80711;SDS011;70078;51.596;5.678;2024-02-21T17:16:29;8.77;;;4.20;;
80711;SDS011;70078;51.596;5.678;2024-02-21T17:18:55;10.23;;;3.08;;
80711;SDS011;70078;51.596;5.678;2024-02-21T17:21:21;5.85;;;2.58;;
80711;SDS011;70078;51.596;5.678;2024-02-21T17:23:46;5.93;;;2.97;;
80711;SDS011;70078;51.596;5.678;2024-02-21T17:26:11;8.38;;;3.88;;
80711;SDS011;70078;51.596;5.678;2024-02-21T17:28:37;7.10;;;3.50;;
80711;SDS011;70078;51.596;5.678;2024-02-21T17:31:02;5.97;;;2.88;;
80711;SDS011;70078;51.596;5.678;2024-02-21T17:35:52;7.13;;;3.70;;
80711;SDS011;70078;51.596;5.678;2024-02-21T17:38:19;5.18;;;3.08;;
80711;SDS011;70078;51.596;5.678;2024-02-21T17:40:44;8.20;;;4.68;;
80711;SDS011;70078;51.596;5.678;2024-02-21T17:43:10;8.82;;;3.90;;
80711;SDS011;70078;51.596;5.678;2024-02-21T17:45:36;8.45;;;3.97;;
80711;SDS011;70078;51.596;5.678;2024-02-21T17:48:04;8.40;;;3.42;;
80711;SDS011;70078;51.596;5.678;2024-02-21T17:50:30;7.47;;;3.30;;
80711;SDS011;70078;51.596;5.678;2024-02-21T17:52:55;7.82;;;3.40;;
80711;SDS011;70078;51.596;5.678;2024-02-21T17:55:21;7.53;;;4.00;;
80711;SDS011;70078;51.596;5.678;2024-02-21T17:57:46;9.52;;;4.20;;
80711;SDS011;70078;51.596;5.678;2024-02-21T18:00:12;5.47;;;3.47;;
80711;SDS011;70078;51.596;5.678;2024-02-21T18:02:38;9.57;;;4.93;;
80711;SDS011;70078;51.596;5.678;2024-02-21T18:07:32;7.18;;;3.67;;
80711;SDS011;70078;51.596;5.678;2024-02-21T18:09:57;8.43;;;4.43;;
80711;SDS011;70078;51.596;5.678;2024-02-21T18:12:23;9.82;;;3.80;;
80711;SDS011;70078;51.596;5.678;2024-02-21T18:14:48;8.10;;;4.50;;
80711;SDS011;70078;51.596;5.678;2024-02-21T18:17:14;8.07;;;4.80;;
80711;SDS011;70078;51.596;5.678;2024-02-21T18:19:39;8.68;;;4.13;;
80711;SDS011;70078;51.596;5.678;2024-02-21T18:22:05;8.40;;;3.78;;
80711;SDS011;70078;51.596;5.678;2024-02-21T18:24:32;6.60;;;3.70;;
80711;SDS011;70078;51.596;5.678;2024-02-21T18:26:58;7.90;;;3.97;;
80711;SDS011;70078;51.596;5.678;2024-02-21T18:29:24;8.77;;;4.88;;
80711;SDS011;70078;51.596;5.678;2024-02-21T18:31:52;9.05;;;3.63;;
80711;SDS011;70078;51.596;5.678;2024-02-21T18:36:43;7.40;;;3.90;;
80711;SDS011;70078;51.596;5.678;2024-02-21T18:39:09;7.75;;;3.88;;
80711;SDS011;70078;51.596;5.678;2024-02-21T18:41:35;8.75;;;5.10;;
80711;SDS011;70078;51.596;5.678;2024-02-21T18:44:01;8.88;;;4.03;;
80711;SDS011;70078;51.596;5.678;2024-02-21T18:46:27;11.18;;;4.65;;
80711;SDS011;70078;51.596;5.678;2024-02-21T18:51:19;6.80;;;3.92;;
80711;SDS011;70078;51.596;5.678;2024-02-21T18:53:44;8.93;;;4.57;;
80711;SDS011;70078;51.596;5.678;2024-02-21T18:56:10;10.15;;;5.97;;
80711;SDS011;70078;51.596;5.678;2024-02-21T18:58:35;8.40;;;4.40;;
80711;SDS011;70078;51.596;5.678;2024-02-21T19:01:01;5.22;;;3.38;;
80711;SDS011;70078;51.596;5.678;2024-02-21T19:03:26;9.00;;;4.60;;
80711;SDS011;70078;51.596;5.678;2024-02-21T19:05:52;7.05;;;3.88;;
80711;SDS011;70078;51.596;5.678;2024-02-21T19:08:17;8.55;;;4.85;;
80711;SDS011;70078;51.596;5.678;2024-02-21T19:10:43;8.98;;;4.50;;
80711;SDS011;70078;51.596;5.678;2024-02-21T19:13:08;9.10;;;4.53;;
80711;SDS011;70078;51.596;5.678;2024-02-21T19:15:34;7.75;;;4.07;;
80711;SDS011;70078;51.596;5.678;2024-02-21T19:18:05;8.43;;;5.03;;
80711;SDS011;70078;51.596;5.678;2024-02-21T19:20:31;6.22;;;3.22;;
80711;SDS011;70078;51.596;5.678;2024-02-21T19:22:56;8.65;;;4.38;;
80711;SDS011;70078;51.596;5.678;2024-02-21T19:25:22;6.93;;;4.47;;
80711;SDS011;70078;51.596;5.678;2024-02-21T19:27:47;4.15;;;2.75;;
80711;SDS011;70078;51.596;5.678;2024-02-21T19:30:13;7.10;;;4.03;;
80711;SDS011;70078;51.596;5.678;2024-02-21T19:32:39;10.55;;;5.45;;
80711;SDS011;70078;51.596;5.678;2024-02-21T19:35:05;8.88;;;4.95;;
80711;SDS011;70078;51.596;5.678;2024-02-21T19:37:31;10.18;;;4.45;;
80711;SDS011;70078;51.596;5.678;2024-02-21T19:39:57;6.47;;;4.32;;
80711;SDS011;70078;51.596;5.678;2024-02-21T19:42:22;7.25;;;4.90;;
80711;SDS011;70078;51.596;5.678;2024-02-21T19:44:48;6.53;;;3.63;;
80711;SDS011;70078;51.596;5.678;2024-02-21T19:47:13;6.43;;;3.13;;
80711;SDS011;70078;51.596;5.678;2024-02-21T19:52:05;6.05;;;3.42;;
80711;SDS011;70078;51.596;5.678;2024-02-21T19:54:30;8.77;;;4.47;;
80711;SDS011;70078;51.596;5.678;2024-02-21T19:56:55;7.22;;;4.88;;
80711;SDS011;70078;51.596;5.678;2024-02-21T19:59:21;8.95;;;4.55;;
80711;SDS011;70078;51.596;5.678;2024-02-21T20:01:46;7.47;;;3.92;;
80711;SDS011;70078;51.596;5.678;2024-02-21T20:04:12;7.45;;;4.47;;
80711;SDS011;70078;51.596;5.678;2024-02-21T20:06:37;6.13;;;3.65;;
80711;SDS011;70078;51.596;5.678;2024-02-21T20:09:03;7.63;;;3.72;;
80711;SDS011;70078;51.596;5.678;2024-02-21T20:11:33;6.75;;;3.60;;
80711;SDS011;70078;51.596;5.678;2024-02-21T20:13:58;4.38;;;2.75;;
80711;SDS011;70078;51.596;5.678;2024-02-21T20:16:25;7.05;;;4.20;;
80711;SDS011;70078;51.596;5.678;2024-02-21T20:18:50;7.13;;;4.45;;
80711;SDS011;70078;51.596;5.678;2024-02-21T20:21:17;5.90;;;3.03;;
80711;SDS011;70078;51.596;5.678;2024-02-21T20:23:42;5.40;;;3.72;;
80711;SDS011;70078;51.596;5.678;2024-02-21T20:26:07;5.53;;;3.13;;
80711;SDS011;70078;51.596;5.678;2024-02-21T20:28:33;7.00;;;3.55;;
80711;SDS011;70078;51.596;5.678;2024-02-21T20:30:59;6.30;;;2.97;;
80711;SDS011;70078;51.596;5.678;2024-02-21T20:33:24;5.60;;;3.03;;
80711;SDS011;70078;51.596;5.678;2024-02-21T20:35:50;5.50;;;3.15;;
80711;SDS011;70078;51.596;5.678;2024-02-21T20:38:15;5.35;;;3.42;;
80711;SDS011;70078;51.596;5.678;2024-02-21T20:40:41;6.03;;;3.05;;
80711;SDS011;70078;51.596;5.678;2024-02-21T20:43:07;6.20;;;3.00;;
80711;SDS011;70078;51.596;5.678;2024-02-21T20:45:33;5.53;;;3.25;;
80711;SDS011;70078;51.596;5.678;2024-02-21T20:47:59;4.50;;;2.90;;
80711;SDS011;70078;51.596;5.678;2024-02-21T20:50:25;5.95;;;4.00;;
80711;SDS011;70078;51.596;5.678;2024-02-21T20:52:50;4.47;;;2.65;;
80711;SDS011;70078;51.596;5.678;2024-02-21T20:55:16;4.75;;;3.08;;
80711;SDS011;70078;51.596;5.678;2024-02-21T20:57:41;5.43;;;2.75;;
80711;SDS011;70078;51.596;5.678;2024-02-21T21:00:07;5.75;;;2.80;;
80711;SDS011;70078;51.596;5.678;2024-02-21T21:02:34;3.97;;;2.88;;
80711;SDS011;70078;51.596;5.678;2024-02-21T21:05:00;6.90;;;3.28;;